createdAt,value
2023-03-13T00:00:37.013Z,21.85
2023-03-13T00:02:38.353Z,21.80
2023-03-13T00:04:39.785Z,21.76
2023-03-13T00:06:41.232Z,21.74
2023-03-13T00:08:42.655Z,21.69
2023-03-13T00:10:44.036Z,21.69
2023-03-13T00:12:45.370Z,21.66
2023-03-13T00:14:46.932Z,21.62
2023-03-13T00:16:48.304Z,21.61
2023-03-13T00:18:49.679Z,21.59
2023-03-13T00:20:51.047Z,21.58
2023-03-13T00:22:52.410Z,21.55
2023-03-13T00:24:53.799Z,21.54
2023-03-13T00:26:55.149Z,21.52
2023-03-13T00:28:56.482Z,21.53
2023-03-13T00:30:57.935Z,21.53
2023-03-13T00:32:59.412Z,21.53
2023-03-13T00:35:00.819Z,21.53
2023-03-13T00:37:02.133Z,21.54
2023-03-13T00:39:03.616Z,21.55
2023-03-13T00:41:04.960Z,21.57
2023-03-13T00:43:06.337Z,21.53
2023-03-13T00:45:07.750Z,21.50
2023-03-13T00:47:09.105Z,21.48
2023-03-13T00:49:10.462Z,21.48
2023-03-13T00:51:11.838Z,21.47
2023-03-13T00:53:13.314Z,21.48
2023-03-13T00:55:14.711Z,21.51
2023-03-13T00:57:16.079Z,21.52
2023-03-13T00:59:17.413Z,21.57
2023-03-13T01:01:18.788Z,21.64
2023-03-13T01:03:20.271Z,21.70
2023-03-13T01:05:21.680Z,21.73
2023-03-13T01:07:23.090Z,21.75
2023-03-13T01:09:24.428Z,21.77
2023-03-13T01:11:25.773Z,21.79
2023-03-13T01:13:27.155Z,21.82
2023-03-13T01:15:28.484Z,21.80
2023-03-13T01:17:30.666Z,21.79
2023-03-13T01:19:32.009Z,21.81
2023-03-13T01:21:33.373Z,21.83
2023-03-13T01:23:34.784Z,21.82
2023-03-13T01:25:36.147Z,21.80
2023-03-13T01:27:37.534Z,21.84
2023-03-13T01:29:38.874Z,21.79
2023-03-13T01:31:40.272Z,21.74
2023-03-13T01:33:41.685Z,21.73
2023-03-13T01:35:43.089Z,21.78
2023-03-13T01:37:44.496Z,21.75
2023-03-13T01:39:45.853Z,21.73
2023-03-13T01:41:47.197Z,21.72
2023-03-13T01:43:48.541Z,21.72
2023-03-13T01:45:49.908Z,21.70
2023-03-13T01:47:51.301Z,21.69
2023-03-13T01:49:52.689Z,21.67
2023-03-13T01:51:54.048Z,21.64
2023-03-13T01:53:55.381Z,21.62
2023-03-13T01:55:56.772Z,21.61
2023-03-13T01:57:58.141Z,21.59
2023-03-13T01:59:59.486Z,21.59
2023-03-13T02:02:00.922Z,21.57
2023-03-13T02:04:02.293Z,21.55
2023-03-13T02:06:03.620Z,21.54
2023-03-13T02:08:04.997Z,21.55
2023-03-13T02:10:06.375Z,21.53
2023-03-13T02:12:07.722Z,21.52
2023-03-13T02:14:09.128Z,21.52
2023-03-13T02:16:10.633Z,21.53
2023-03-13T02:18:12.021Z,21.59
2023-03-13T02:20:13.393Z,21.62
2023-03-13T02:22:14.797Z,21.64
2023-03-13T02:24:16.114Z,21.64
2023-03-13T02:26:17.493Z,21.65
2023-03-13T02:28:18.828Z,21.67
2023-03-13T02:30:20.244Z,21.73
2023-03-13T02:32:21.731Z,21.76
2023-03-13T02:34:23.112Z,21.79
2023-03-13T02:36:24.542Z,21.81
2023-03-13T02:38:25.880Z,21.87
2023-03-13T02:40:27.259Z,21.89
2023-03-13T02:42:28.580Z,21.89
2023-03-13T02:44:30.194Z,21.87
2023-03-13T02:46:32.490Z,21.86
2023-03-13T02:48:34.278Z,21.83
2023-03-13T02:50:35.605Z,21.77
2023-03-13T02:52:38.829Z,21.78
2023-03-13T02:54:40.217Z,21.74
2023-03-13T02:56:41.537Z,21.71
2023-03-13T02:58:49.794Z,21.70
2023-03-13T03:00:51.576Z,21.70
2023-03-13T03:02:53.020Z,21.74
2023-03-13T03:04:54.356Z,21.72
2023-03-13T03:06:55.697Z,21.72
2023-03-13T03:08:57.064Z,21.73
2023-03-13T03:10:58.416Z,21.74
2023-03-13T03:12:59.748Z,21.73
2023-03-13T03:15:01.096Z,21.75
2023-03-13T03:17:02.484Z,21.69
2023-03-13T03:19:03.813Z,21.60
2023-03-13T03:21:06.347Z,21.53
2023-03-13T03:23:07.851Z,21.48
2023-03-13T03:25:09.411Z,21.43
2023-03-13T03:27:10.898Z,21.43
2023-03-13T03:29:13.457Z,21.40
2023-03-13T03:31:14.815Z,21.35
2023-03-13T03:33:16.176Z,21.32
2023-03-13T03:35:17.573Z,21.31
2023-03-13T03:37:18.918Z,21.32
2023-03-13T03:39:20.292Z,21.32
2023-03-13T03:41:21.775Z,21.34
2023-03-13T03:43:23.112Z,21.39
2023-03-13T03:45:24.456Z,21.43
2023-03-13T03:47:25.873Z,21.48
2023-03-13T03:49:27.353Z,21.54
2023-03-13T03:51:28.739Z,21.60
2023-03-13T03:53:30.866Z,21.65
2023-03-13T03:55:34.155Z,21.67
2023-03-13T03:57:36.430Z,21.70
2023-03-13T03:59:37.771Z,21.77
2023-03-13T04:01:39.111Z,21.77
2023-03-13T04:03:40.619Z,21.78
2023-03-13T04:05:42.058Z,21.78
2023-03-13T04:07:43.461Z,21.83
2023-03-13T04:09:44.797Z,21.84
2023-03-13T04:11:46.145Z,21.78
2023-03-13T04:13:47.530Z,21.76
2023-03-13T04:15:48.876Z,21.73
2023-03-13T04:17:50.260Z,21.70
2023-03-13T04:19:51.597Z,21.74
2023-03-13T04:21:52.925Z,21.74
2023-03-13T04:23:54.311Z,20.86
2023-03-13T04:25:55.752Z,21.74
2023-03-13T04:27:57.060Z,21.74
2023-03-13T04:29:58.442Z,21.72
2023-03-13T04:31:59.791Z,21.70
2023-03-13T04:34:01.195Z,21.67
2023-03-13T04:36:02.655Z,21.65
2023-03-13T04:38:03.992Z,21.61
2023-03-13T04:40:05.325Z,21.63
2023-03-13T04:42:06.653Z,21.64
2023-03-13T04:44:08.046Z,21.61
2023-03-13T04:46:09.470Z,21.59
2023-03-13T04:48:10.873Z,21.55
2023-03-13T04:50:12.211Z,21.55
2023-03-13T04:52:13.564Z,21.62
2023-03-13T04:54:14.930Z,21.69
2023-03-13T04:56:16.265Z,21.71
2023-03-13T04:58:17.665Z,21.70
2023-03-13T05:00:19.033Z,21.69
2023-03-13T05:02:20.406Z,21.62
2023-03-13T05:04:21.737Z,21.54
2023-03-13T05:06:23.068Z,21.45
2023-03-13T05:08:24.394Z,21.40
2023-03-13T05:10:25.740Z,21.37
2023-03-13T05:12:27.104Z,21.35
2023-03-13T05:14:28.444Z,21.32
2023-03-13T05:16:29.783Z,21.25
2023-03-13T05:18:31.271Z,21.21
2023-03-13T05:20:32.655Z,21.19
2023-03-13T05:22:33.988Z,21.20
2023-03-13T05:24:35.305Z,21.26
2023-03-13T05:26:36.639Z,21.32
2023-03-13T05:28:37.987Z,21.40
2023-03-13T05:30:39.322Z,21.47
2023-03-13T05:32:40.868Z,21.50
2023-03-13T05:34:42.272Z,21.54
2023-03-13T05:36:43.684Z,21.58
2023-03-13T05:38:45.149Z,21.63
2023-03-13T05:40:46.562Z,21.65
2023-03-13T05:42:47.899Z,21.71
2023-03-13T05:44:49.289Z,21.74
2023-03-13T05:46:50.681Z,21.75
2023-03-13T05:48:52.873Z,21.76
2023-03-13T05:50:54.200Z,21.76
2023-03-13T05:52:55.560Z,21.76
2023-03-13T05:54:57.004Z,21.73
2023-03-13T05:56:58.408Z,21.72
2023-03-13T05:58:59.788Z,21.69
2023-03-13T06:01:01.117Z,21.63
2023-03-13T06:03:02.531Z,21.61
2023-03-13T06:05:03.933Z,21.65
2023-03-13T06:07:05.328Z,21.66
2023-03-13T06:09:06.721Z,21.65
2023-03-13T06:11:08.128Z,21.65
2023-03-13T06:13:19.480Z,21.63
2023-03-13T06:15:21.574Z,21.62
2023-03-13T06:17:22.952Z,21.60
2023-03-13T06:19:24.577Z,21.63
2023-03-13T06:21:25.908Z,21.61
2023-03-13T06:23:27.256Z,21.60
2023-03-13T06:25:28.641Z,21.60
2023-03-13T06:27:29.958Z,21.58
2023-03-13T06:29:31.336Z,21.59
2023-03-13T06:31:32.750Z,21.57
2023-03-13T06:33:34.101Z,21.59
2023-03-13T06:35:46.177Z,21.58
2023-03-13T06:37:54.662Z,21.56
2023-03-13T06:39:56.038Z,21.57
2023-03-13T06:41:57.373Z,21.55
2023-03-13T06:43:58.697Z,21.54
2023-03-13T06:46:00.044Z,21.53
2023-03-13T06:48:01.385Z,21.54
2023-03-13T06:50:02.724Z,21.54
2023-03-13T06:52:04.065Z,21.53
2023-03-13T06:54:05.418Z,21.51
2023-03-13T06:56:06.761Z,21.54
2023-03-13T06:58:08.770Z,21.58
2023-03-13T07:00:13.650Z,21.62
2023-03-13T07:02:15.040Z,21.67
2023-03-13T07:04:16.508Z,21.77
2023-03-13T07:06:18.469Z,21.84
2023-03-13T07:08:19.841Z,21.87
2023-03-13T07:10:21.153Z,21.87
2023-03-13T07:12:22.542Z,21.09
2023-03-13T07:14:23.949Z,21.89
2023-03-13T07:16:25.355Z,21.87
2023-03-13T07:18:26.733Z,21.83
2023-03-13T07:20:28.149Z,21.05
2023-03-13T07:22:29.599Z,21.75
2023-03-13T07:24:31.398Z,21.76
2023-03-13T07:26:32.870Z,21.75
2023-03-13T07:28:36.438Z,21.76
2023-03-13T07:30:38.931Z,21.72
2023-03-13T07:32:40.373Z,21.70
2023-03-13T07:34:44.619Z,21.68
2023-03-13T07:36:46.021Z,21.66
2023-03-13T07:38:47.361Z,21.63
2023-03-13T07:40:48.830Z,21.61
2023-03-13T07:42:50.276Z,21.59
2023-03-13T07:44:51.597Z,21.58
2023-03-13T07:46:52.977Z,21.58
2023-03-13T07:48:55.285Z,21.54
2023-03-13T07:50:56.683Z,21.73
2023-03-13T07:52:58.034Z,21.78
2023-03-13T07:54:59.455Z,21.63
2023-03-13T07:57:00.796Z,21.50
2023-03-13T07:59:02.157Z,21.63
2023-03-13T08:01:03.549Z,21.48
2023-03-13T08:03:07.420Z,21.37
2023-03-13T08:05:09.095Z,21.31
2023-03-13T08:07:10.430Z,21.28
2023-03-13T08:09:11.785Z,21.24
2023-03-13T08:11:13.126Z,21.23
2023-03-13T08:13:14.986Z,21.19
2023-03-13T08:15:18.699Z,21.20
2023-03-13T08:17:20.025Z,21.21
2023-03-13T08:19:21.378Z,21.23
2023-03-13T08:21:22.778Z,21.25
2023-03-13T08:23:24.178Z,21.30
2023-03-13T08:25:25.509Z,21.34
2023-03-13T08:27:26.996Z,21.39
2023-03-13T08:29:28.345Z,21.42
2023-03-13T08:31:29.755Z,21.47
2023-03-13T08:33:31.135Z,21.50
2023-03-13T08:35:32.519Z,21.46
2023-03-13T08:37:33.917Z,20.04
2023-03-13T08:39:35.228Z,20.36
2023-03-13T08:41:36.799Z,20.40
2023-03-13T08:43:38.486Z,21.38
2023-03-13T08:45:39.836Z,21.11
2023-03-13T08:47:41.201Z,22.64
2023-03-13T08:49:42.534Z,22.30
2023-03-13T08:51:43.909Z,22.35
2023-03-13T08:53:45.246Z,22.89
2023-03-13T08:55:46.688Z,23.29
2023-03-13T08:57:48.020Z,23.41
2023-03-13T08:59:50.774Z,23.27
2023-03-13T09:01:52.098Z,23.62
2023-03-13T09:03:53.497Z,23.69
2023-03-13T09:05:56.224Z,23.15
2023-03-13T09:07:57.951Z,23.03
2023-03-13T09:09:59.308Z,23.66
2023-03-13T09:12:00.721Z,23.78
2023-03-13T09:14:02.137Z,23.60
2023-03-13T09:16:03.612Z,23.09
2023-03-13T09:18:06.570Z,22.72
2023-03-13T09:20:08.458Z,22.30
2023-03-13T09:22:09.868Z,22.12
2023-03-13T09:24:11.211Z,22.21
2023-03-13T09:26:12.569Z,22.28
2023-03-13T09:28:13.942Z,22.31
2023-03-13T09:30:15.296Z,22.35
2023-03-13T09:32:17.127Z,22.36
2023-03-13T09:34:18.658Z,22.80
2023-03-13T09:36:22.130Z,22.71
2023-03-13T09:38:23.816Z,23.06
2023-03-13T09:40:25.240Z,22.73
2023-03-13T09:42:26.525Z,23.02
2023-03-13T09:44:27.908Z,23.41
2023-03-13T09:46:29.336Z,23.70
2023-03-13T09:48:30.729Z,23.42
2023-03-13T09:50:32.101Z,23.37
2023-03-13T09:52:33.405Z,23.39
2023-03-13T09:54:36.221Z,23.31
2023-03-13T09:56:37.932Z,23.12
2023-03-13T09:58:39.276Z,23.11
2023-03-13T10:00:40.585Z,22.96
2023-03-13T10:02:41.898Z,22.15
2023-03-13T10:04:43.369Z,21.80
2023-03-13T10:06:44.851Z,21.85
2023-03-13T10:08:46.148Z,22.14
2023-03-13T10:10:47.510Z,22.09
2023-03-13T10:12:48.860Z,21.97
2023-03-13T10:14:50.164Z,21.77
2023-03-13T10:16:51.507Z,21.49
2023-03-13T10:18:52.824Z,21.42
2023-03-13T10:20:54.173Z,21.45
2023-03-13T10:22:55.554Z,22.19
2023-03-13T10:24:56.930Z,22.71
2023-03-13T10:27:01.062Z,22.95
2023-03-13T10:29:02.385Z,22.97
2023-03-13T10:31:03.808Z,23.18
2023-03-13T10:33:05.178Z,23.30
2023-03-13T10:35:09.145Z,23.65
2023-03-13T10:37:10.444Z,23.76
2023-03-13T10:39:11.801Z,23.39
2023-03-13T10:41:13.091Z,23.55
2023-03-13T10:43:14.384Z,23.31
2023-03-13T10:45:15.720Z,23.05
2023-03-13T10:47:17.180Z,22.95
2023-03-13T10:49:18.660Z,22.53
2023-03-13T10:51:19.979Z,22.44
2023-03-13T10:53:21.313Z,22.93
2023-03-13T10:55:22.680Z,23.12
2023-03-13T10:57:24.061Z,23.06
2023-03-13T10:59:25.379Z,23.25
2023-03-13T11:01:26.802Z,23.14
2023-03-13T11:03:28.546Z,23.22
2023-03-13T11:05:30.019Z,22.78
2023-03-13T11:07:31.360Z,22.36
2023-03-13T11:09:33.357Z,22.09
2023-03-13T11:11:34.710Z,21.97
2023-03-13T11:13:37.812Z,21.89
2023-03-13T11:15:39.767Z,21.79
2023-03-13T11:17:41.166Z,21.75
2023-03-13T11:19:42.592Z,21.71
2023-03-13T11:21:44.660Z,21.68
2023-03-13T11:23:46.008Z,21.64
2023-03-13T11:25:47.332Z,21.61
2023-03-13T11:27:48.701Z,21.58
2023-03-13T11:29:50.125Z,21.69
2023-03-13T11:31:51.521Z,21.74
2023-03-13T11:33:56.864Z,21.75
2023-03-13T11:35:58.468Z,21.72
2023-03-13T11:37:59.824Z,21.72
2023-03-13T11:40:01.154Z,21.72
2023-03-13T11:42:02.473Z,21.71
2023-03-13T11:44:03.828Z,21.67
2023-03-13T11:46:05.308Z,21.66
2023-03-13T11:48:06.676Z,21.63
2023-03-13T11:50:08.017Z,21.62
2023-03-13T11:52:09.340Z,21.61
2023-03-13T11:54:10.673Z,21.63
2023-03-13T11:56:11.992Z,21.65
2023-03-13T11:58:13.305Z,21.66
2023-03-13T12:00:14.628Z,21.68
2023-03-13T12:02:15.968Z,21.69
2023-03-13T12:04:17.295Z,21.67
2023-03-13T12:06:27.601Z,21.68
2023-03-13T12:08:29.769Z,21.66
2023-03-13T12:10:31.141Z,21.66
2023-03-13T12:12:32.537Z,21.65
2023-03-13T12:14:33.881Z,21.65
2023-03-13T12:16:35.394Z,21.62
2023-03-13T12:18:36.790Z,21.61
2023-03-13T12:20:38.174Z,21.60
2023-03-13T12:22:39.506Z,21.67
2023-03-13T12:24:40.850Z,21.62
2023-03-13T12:26:42.200Z,21.49
2023-03-13T12:28:43.555Z,21.42
2023-03-13T12:30:44.901Z,21.41
2023-03-13T12:32:46.378Z,21.47
2023-03-13T12:34:47.712Z,21.36
2023-03-13T12:36:49.007Z,21.29
2023-03-13T12:38:50.538Z,21.12
2023-03-13T12:40:51.932Z,21.09
2023-03-13T12:42:53.295Z,21.05
2023-03-13T12:44:54.608Z,21.01
2023-03-13T12:46:56.004Z,20.98
2023-03-13T12:48:57.417Z,20.92
2023-03-13T12:50:58.708Z,20.87
2023-03-13T12:53:00.030Z,20.82
2023-03-13T12:55:02.213Z,20.79
2023-03-13T12:57:03.534Z,20.75
2023-03-13T12:59:04.880Z,20.72
2023-03-13T13:01:06.240Z,20.69
2023-03-13T13:03:07.541Z,20.69
2023-03-13T13:05:08.857Z,20.70
2023-03-13T13:07:10.305Z,20.73
2023-03-13T13:09:11.618Z,20.75
2023-03-13T13:11:12.919Z,20.80
2023-03-13T13:13:14.280Z,20.85
2023-03-13T13:15:15.624Z,20.88
2023-03-13T13:17:17.319Z,20.93
2023-03-13T13:19:18.656Z,21.01
2023-03-13T13:21:19.978Z,21.09
2023-03-13T13:23:21.279Z,21.16
2023-03-13T13:25:22.666Z,21.22
2023-03-13T13:27:23.997Z,21.29
2023-03-13T13:29:25.713Z,21.31
2023-03-13T13:31:27.150Z,21.34
2023-03-13T13:33:30.677Z,21.38
2023-03-13T13:35:32.164Z,21.43
2023-03-13T13:37:33.631Z,21.47
2023-03-13T13:39:35.046Z,21.51
2023-03-13T13:41:37.238Z,21.49
2023-03-13T13:43:38.640Z,21.46
2023-03-13T13:45:39.976Z,21.48
2023-03-13T13:47:41.276Z,21.46
2023-03-13T13:49:42.573Z,21.46
2023-03-13T13:51:43.976Z,21.46
2023-03-13T13:53:45.333Z,21.45
2023-03-13T13:55:46.846Z,21.47
2023-03-13T13:57:49.387Z,21.48
2023-03-13T13:59:50.725Z,21.50
2023-03-13T14:01:52.123Z,21.50
2023-03-13T14:03:53.809Z,21.52
2023-03-13T14:05:55.185Z,21.54
2023-03-13T14:07:56.558Z,21.53
2023-03-13T14:09:57.865Z,21.52
2023-03-13T14:11:59.211Z,21.52
2023-03-13T14:14:00.556Z,21.50
2023-03-13T14:16:01.866Z,21.46
2023-03-13T14:18:03.204Z,21.44
2023-03-13T14:20:06.503Z,21.41
2023-03-13T14:22:07.873Z,21.37
2023-03-13T14:24:09.226Z,21.34
2023-03-13T14:26:10.750Z,21.29
2023-03-13T14:28:12.124Z,21.27
2023-03-13T14:30:13.428Z,21.24
2023-03-13T14:32:14.759Z,21.20
2023-03-13T14:34:16.072Z,21.19
2023-03-13T14:36:17.389Z,21.17
2023-03-13T14:38:18.861Z,21.16
2023-03-13T14:40:20.297Z,21.12
2023-03-13T14:42:21.635Z,21.07
2023-03-13T14:44:22.993Z,21.00
2023-03-13T14:46:24.363Z,20.25
2023-03-13T14:48:25.769Z,20.93
2023-03-13T14:50:27.140Z,20.92
2023-03-13T14:52:28.519Z,20.90
2023-03-13T14:54:29.877Z,20.89
2023-03-13T14:56:31.213Z,20.88
2023-03-13T14:58:32.621Z,20.89
2023-03-13T15:00:34.151Z,20.91
2023-03-13T15:02:36.085Z,20.93
2023-03-13T15:04:37.445Z,20.96
2023-03-13T15:06:38.847Z,20.98
2023-03-13T15:08:40.190Z,21.03
2023-03-13T15:10:41.577Z,21.05
2023-03-13T15:12:42.877Z,21.06
2023-03-13T15:14:44.180Z,21.07
2023-03-13T15:16:45.557Z,21.08
2023-03-13T15:18:47.239Z,21.10
2023-03-13T15:20:51.388Z,21.09
2023-03-13T15:22:52.681Z,21.11
2023-03-13T15:25:05.654Z,21.11
2023-03-13T15:27:07.640Z,21.09
2023-03-13T15:29:09.050Z,21.07
2023-03-13T15:31:10.401Z,21.07
2023-03-13T15:33:11.778Z,21.10
2023-03-13T15:35:13.210Z,21.09
2023-03-13T15:37:14.932Z,21.08
2023-03-13T15:39:16.351Z,21.08
2023-03-13T15:41:17.648Z,21.08
2023-03-13T15:43:18.939Z,21.10
2023-03-13T15:45:20.357Z,21.09
2023-03-13T15:47:21.783Z,21.11
2023-03-13T15:49:23.104Z,21.08
2023-03-13T15:51:24.450Z,21.06
2023-03-13T15:53:25.805Z,21.08
2023-03-13T15:55:27.182Z,21.05
2023-03-13T15:57:28.486Z,21.04
2023-03-13T15:59:29.980Z,21.06
2023-03-13T16:01:31.342Z,21.03
2023-03-13T16:03:32.676Z,21.00
2023-03-13T16:05:34.009Z,21.01
2023-03-13T16:07:35.636Z,20.98
2023-03-13T16:09:36.950Z,20.99
2023-03-13T16:11:38.244Z,20.98
2023-03-13T16:13:39.575Z,20.96
2023-03-13T16:15:40.928Z,20.95
2023-03-13T16:17:45.028Z,20.99
2023-03-13T16:19:49.243Z,19.99
2023-03-13T16:21:52.676Z,20.95
2023-03-13T16:24:00.058Z,20.92
2023-03-13T16:26:04.961Z,20.90
2023-03-13T16:28:07.710Z,20.89
2023-03-13T16:30:09.117Z,20.89
2023-03-13T16:32:10.417Z,20.86
2023-03-13T16:34:12.070Z,20.85
2023-03-13T16:36:13.360Z,20.85
2023-03-13T16:38:17.751Z,20.81
2023-03-13T16:40:19.425Z,20.79
2023-03-13T16:42:20.800Z,20.77
2023-03-13T16:44:22.188Z,20.76
2023-03-13T16:46:23.982Z,20.75
2023-03-13T16:48:25.351Z,20.74
2023-03-13T16:50:26.752Z,20.74
2023-03-13T16:52:28.061Z,20.74
2023-03-13T16:54:29.353Z,20.74
2023-03-13T16:56:30.750Z,20.72
2023-03-13T16:58:32.086Z,20.72
2023-03-13T17:00:33.468Z,20.71
2023-03-13T17:02:37.533Z,20.71
2023-03-13T17:04:39.045Z,20.71
2023-03-13T17:06:41.428Z,20.72
2023-03-13T17:08:44.008Z,20.71
2023-03-13T17:10:45.363Z,20.69
2023-03-13T17:12:46.703Z,20.69
2023-03-13T17:14:48.107Z,20.71
2023-03-13T17:16:49.409Z,20.72
2023-03-13T17:18:51.611Z,20.70
2023-03-13T17:20:52.951Z,20.67
2023-03-13T17:22:56.218Z,20.60
2023-03-13T17:24:57.572Z,20.53
2023-03-13T17:26:58.937Z,20.48
2023-03-13T17:29:03.113Z,20.42
2023-03-13T17:31:05.839Z,20.38
2023-03-13T17:33:07.199Z,20.36
2023-03-13T17:35:08.566Z,20.36
2023-03-13T17:37:09.958Z,20.40
2023-03-13T17:39:11.377Z,20.44
2023-03-13T17:41:13.028Z,20.47
2023-03-13T17:43:14.509Z,20.52
2023-03-13T17:45:15.829Z,20.54
2023-03-13T17:47:17.158Z,20.60
2023-03-13T17:49:20.503Z,20.61
2023-03-13T17:51:21.916Z,20.68
2023-03-13T17:53:23.455Z,20.72
2023-03-13T17:55:25.288Z,20.75
2023-03-13T17:57:29.512Z,20.78
2023-03-13T17:59:30.915Z,20.82
2023-03-13T18:01:32.380Z,20.83
2023-03-13T18:03:33.781Z,20.85
2023-03-13T18:05:35.100Z,20.86
2023-03-13T18:07:36.475Z,20.88
2023-03-13T18:09:40.533Z,20.83
2023-03-13T18:11:42.064Z,20.89
2023-03-13T18:13:43.447Z,20.89
2023-03-13T18:15:44.866Z,20.88
2023-03-13T18:17:46.245Z,20.89
2023-03-13T18:19:47.714Z,20.88
2023-03-13T18:21:49.057Z,20.85
2023-03-13T18:23:50.437Z,20.86
2023-03-13T18:25:51.776Z,20.86
2023-03-13T18:27:53.126Z,20.82
2023-03-13T18:29:54.459Z,20.76
2023-03-13T18:31:55.930Z,20.71
2023-03-13T18:33:57.395Z,20.68
2023-03-13T18:36:02.197Z,20.68
2023-03-13T18:38:08.411Z,20.67
2023-03-13T18:40:09.733Z,20.70
2023-03-13T18:42:11.131Z,20.73
2023-03-13T18:44:15.629Z,20.75
2023-03-13T18:46:17.129Z,20.76
2023-03-13T18:48:18.474Z,20.78
2023-03-13T18:50:20.351Z,20.77
2023-03-13T18:52:21.705Z,20.80
2023-03-13T18:54:23.010Z,19.67
2023-03-13T18:56:24.399Z,20.79
2023-03-13T18:58:26.377Z,20.78
2023-03-13T19:00:27.794Z,20.83
2023-03-13T19:02:29.215Z,20.80
2023-03-13T19:04:30.598Z,20.81
2023-03-13T19:06:31.942Z,20.81
2023-03-13T19:08:35.933Z,20.80
2023-03-13T19:10:38.616Z,20.79
2023-03-13T19:12:39.954Z,20.78
2023-03-13T19:14:41.300Z,20.76
2023-03-13T19:16:42.648Z,20.76
2023-03-13T19:18:44.105Z,20.78
2023-03-13T19:20:48.084Z,20.77
2023-03-13T19:22:49.381Z,20.79
2023-03-13T19:24:50.722Z,20.78
2023-03-13T19:26:58.360Z,20.78
2023-03-13T19:28:59.756Z,20.77
2023-03-13T19:31:01.119Z,20.77
2023-03-13T19:33:02.449Z,20.74
2023-03-13T19:35:03.829Z,20.73
2023-03-13T19:37:05.187Z,20.76
2023-03-13T19:39:06.497Z,20.75
2023-03-13T19:41:07.798Z,20.71
2023-03-13T19:43:09.109Z,20.76
2023-03-13T19:45:10.460Z,20.74
2023-03-13T19:47:11.842Z,20.72
2023-03-13T19:49:13.237Z,20.71
2023-03-13T19:51:14.584Z,20.72
2023-03-13T19:53:15.973Z,20.70
2023-03-13T19:55:17.350Z,20.69
2023-03-13T19:57:18.788Z,20.70
2023-03-13T19:59:23.577Z,20.68
2023-03-13T20:01:27.931Z,20.71
2023-03-13T20:03:29.308Z,20.69
2023-03-13T20:05:30.871Z,20.69
2023-03-13T20:07:32.594Z,20.69
2023-03-13T20:09:35.561Z,20.68
2023-03-13T20:11:37.957Z,20.70
2023-03-13T20:13:41.947Z,20.70
2023-03-13T20:15:46.295Z,20.70
2023-03-13T20:17:53.616Z,20.69
2023-03-13T20:19:55.054Z,20.68
2023-03-13T20:21:59.644Z,20.71
2023-03-13T20:24:01.011Z,20.74
2023-03-13T20:26:02.530Z,20.74
2023-03-13T20:28:03.882Z,20.73
2023-03-13T20:30:06.307Z,20.75
2023-03-13T20:32:07.992Z,20.76
2023-03-13T20:34:09.431Z,20.77
2023-03-13T20:36:10.770Z,20.77
2023-03-13T20:38:12.192Z,20.78
2023-03-13T20:40:13.509Z,20.80
2023-03-13T20:42:16.490Z,20.81
2023-03-13T20:44:17.862Z,20.81
2023-03-13T20:46:19.261Z,20.80
2023-03-13T20:48:20.770Z,20.82
2023-03-13T20:50:22.193Z,20.83
2023-03-13T20:52:23.524Z,20.84
2023-03-13T20:54:24.871Z,20.86
2023-03-13T20:56:26.159Z,20.88
2023-03-13T20:58:27.477Z,20.86
2023-03-13T21:00:28.814Z,20.88
2023-03-13T21:02:30.182Z,20.89
2023-03-13T21:04:31.545Z,20.88
2023-03-13T21:06:33.115Z,20.89
2023-03-13T21:08:35.644Z,20.88
2023-03-13T21:10:38.250Z,20.90
2023-03-13T21:12:39.596Z,20.89
2023-03-13T21:14:41.305Z,20.88
2023-03-13T21:16:42.643Z,20.90
2023-03-13T21:18:43.973Z,20.89
2023-03-13T21:20:45.289Z,20.87
2023-03-13T21:22:46.689Z,20.88
2023-03-13T21:24:48.628Z,20.89
2023-03-13T21:26:49.963Z,20.87
2023-03-13T21:28:54.438Z,20.87
2023-03-13T21:30:58.867Z,20.87
2023-03-13T21:33:00.306Z,20.83
2023-03-13T21:35:01.653Z,20.83
2023-03-13T21:37:02.986Z,20.81
2023-03-13T21:39:05.170Z,20.77
2023-03-13T21:41:07.936Z,20.74
2023-03-13T21:43:09.258Z,20.69
2023-03-13T21:45:10.623Z,20.64
2023-03-13T21:47:12.019Z,20.59
2023-03-13T21:49:13.647Z,20.56
2023-03-13T21:51:15.140Z,20.55
2023-03-13T21:53:16.439Z,20.54
2023-03-13T21:55:17.755Z,20.52
2023-03-13T21:57:19.138Z,20.53
2023-03-13T21:59:21.824Z,20.53
2023-03-13T22:01:23.121Z,20.52
2023-03-13T22:03:24.552Z,20.50
2023-03-13T22:05:25.892Z,20.49
2023-03-13T22:07:27.380Z,20.51
2023-03-13T22:09:31.454Z,20.49
2023-03-13T22:11:32.766Z,20.52
2023-03-13T22:13:34.164Z,20.54
2023-03-13T22:15:35.496Z,20.54
2023-03-13T22:17:36.840Z,20.52
2023-03-13T22:19:40.860Z,20.53
2023-03-13T22:21:43.890Z,20.25
2023-03-13T22:23:45.230Z,19.76
2023-03-13T22:25:48.131Z,19.76
2023-03-13T22:27:49.563Z,19.66
2023-03-13T22:29:50.929Z,19.70
2023-03-13T22:31:52.268Z,19.33
2023-03-13T22:33:53.601Z,19.23
2023-03-13T22:35:54.946Z,19.57
2023-03-13T22:37:56.278Z,20.45
2023-03-13T22:39:57.617Z,21.31
2023-03-13T22:41:58.932Z,21.47
2023-03-13T22:44:00.339Z,21.70
2023-03-13T22:46:04.416Z,22.11
2023-03-13T22:48:06.697Z,22.37
2023-03-13T22:50:09.615Z,22.61
2023-03-13T22:52:10.928Z,22.50
2023-03-13T22:54:12.261Z,22.60
2023-03-13T22:56:13.733Z,22.73
2023-03-13T22:58:15.033Z,22.61
2023-03-13T23:00:16.336Z,22.49
2023-03-13T23:02:17.654Z,22.31
2023-03-13T23:04:18.964Z,22.35
2023-03-13T23:06:20.293Z,22.33
2023-03-13T23:08:21.623Z,22.45
2023-03-13T23:10:23.032Z,22.68
2023-03-13T23:12:24.479Z,22.72
2023-03-13T23:14:29.077Z,22.37
2023-03-13T23:16:33.741Z,22.32
2023-03-13T23:18:35.152Z,22.19
2023-03-13T23:20:36.485Z,22.30
2023-03-13T23:22:37.793Z,22.44
2023-03-13T23:24:39.139Z,22.42
2023-03-13T23:26:40.590Z,22.63
2023-03-13T23:28:41.907Z,22.50
2023-03-13T23:30:44.574Z,22.58
2023-03-13T23:32:46.029Z,22.47
2023-03-13T23:34:47.388Z,22.40
2023-03-13T23:36:49.024Z,22.48
2023-03-13T23:38:50.449Z,22.45
2023-03-13T23:40:53.117Z,22.39
2023-03-13T23:42:54.432Z,22.39
2023-03-13T23:44:55.753Z,22.46
2023-03-13T23:46:57.064Z,22.44
2023-03-13T23:48:58.554Z,22.26
2023-03-13T23:50:59.900Z,21.64
2023-03-13T23:53:02.216Z,22.54
2023-03-13T23:55:04.397Z,22.60
2023-03-13T23:57:05.723Z,22.92
2023-03-13T23:59:07.037Z,22.48
